Pagrindinis puslapis
METAR-TAF:

METAR-TAF

Oro uostai :

Lake Minchumina, Aliaska, Jungtinės Amerikos Valstijos

platuma: 63-52-50N, ilguma: 152-18-02W, Aukštis: 208 m

Dabartinis oras

Ataskaita buvo paskelbta 53 minutes, ne 21:10 UTC
Vėjas 5 kt nuo kintamojo kryptimis
Temperatūra 4°C
Drėgmė 75%
Slėgis 1000 hPa
Matomumas: 16.1 km
Išsisklaidę debesys ne aukštis 1900 ft
Apsiniaukę ne aukštis 8000 ft

METAR: PAMH 212110Z AUTO VRB05KT 10SM SCT019 OVC080 04/00 A2954 RMK AO2

Laikas: 14:03 (22:03 UTC)


TAF: trūkstamas

Orai ataskaitas ir orų prognozės (METAR, TAF).

turimą stotys yra geltonos ir raudonos taškus žemėlapyje.

Perkelti pele per norėdami pamatyti stoties vardą.

Tada spustelėkite, norėdami matyti oro stebėjimo ir prognozės.

Norėdami pakeisti žemėlapį: spustelėkite ant žalios mygtukų su juodo kryžiaus žemyn,; žalią mygtuką su brūkšneliu, jei norite nutolinti; arba žalių rodyklių gretimoms žemėlapius.


METAR-TAF: